sensor_id;sensor_type;location;lat;lon;timestamp;temperature;humidity
21244;DHT22;10780;50.942;4.028;2023-07-29T00:00:19;19.00;99.90
21244;DHT22;10780;50.942;4.028;2023-07-29T00:02:45;18.90;99.90
21244;DHT22;10780;50.942;4.028;2023-07-29T00:05:11;18.80;99.90
21244;DHT22;10780;50.942;4.028;2023-07-29T00:07:36;18.80;99.90
21244;DHT22;10780;50.942;4.028;2023-07-29T00:10:03;18.80;99.90
21244;DHT22;10780;50.942;4.028;2023-07-29T00:12:29;18.70;99.90
21244;DHT22;10780;50.942;4.028;2023-07-29T00:14:54;18.70;99.90
21244;DHT22;10780;50.942;4.028;2023-07-29T00:17:20;18.70;99.90
21244;DHT22;10780;50.942;4.028;2023-07-29T00:19:46;18.70;99.90
21244;DHT22;10780;50.942;4.028;2023-07-29T00:22:12;18.70;99.90
21244;DHT22;10780;50.942;4.028;2023-07-29T00:24:39;18.70;99.90
21244;DHT22;10780;50.942;4.028;2023-07-29T00:27:05;18.70;99.90
21244;DHT22;10780;50.942;4.028;2023-07-29T00:29:30;18.80;99.90
21244;DHT22;10780;50.942;4.028;2023-07-29T00:31:56;18.80;99.90
21244;DHT22;10780;50.942;4.028;2023-07-29T00:34:21;18.80;99.90
21244;DHT22;10780;50.942;4.028;2023-07-29T00:36:47;18.80;99.90
21244;DHT22;10780;50.942;4.028;2023-07-29T00:39:13;18.80;99.90
21244;DHT22;10780;50.942;4.028;2023-07-29T00:41:39;18.80;99.90
21244;DHT22;10780;50.942;4.028;2023-07-29T00:44:04;18.80;99.90
21244;DHT22;10780;50.942;4.028;2023-07-29T00:46:32;18.80;99.90
21244;DHT22;10780;50.942;4.028;2023-07-29T00:49:00;18.90;99.90
21244;DHT22;10780;50.942;4.028;2023-07-29T00:51:25;18.80;99.90
21244;DHT22;10780;50.942;4.028;2023-07-29T00:53:51;18.80;99.90
21244;DHT22;10780;50.942;4.028;2023-07-29T00:56:16;18.80;99.90
21244;DHT22;10780;50.942;4.028;2023-07-29T00:58:42;18.90;99.90
21244;DHT22;10780;50.942;4.028;2023-07-29T01:01:08;19.00;99.90
21244;DHT22;10780;50.942;4.028;2023-07-29T01:03:35;19.10;99.90
21244;DHT22;10780;50.942;4.028;2023-07-29T01:09:03;19.10;99.90
21244;DHT22;10780;50.942;4.028;2023-07-29T01:11:33;19.10;99.90
21244;DHT22;10780;50.942;4.028;2023-07-29T01:14:10;19.20;99.90
21244;DHT22;10780;50.942;4.028;2023-07-29T01:16:47;19.20;99.90
21244;DHT22;10780;50.942;4.028;2023-07-29T01:22:07;19.30;99.90
21244;DHT22;10780;50.942;4.028;2023-07-29T01:24:33;19.30;99.90
21244;DHT22;10780;50.942;4.028;2023-07-29T01:26:58;19.30;99.90
21244;DHT22;10780;50.942;4.028;2023-07-29T01:29:24;19.30;99.90
21244;DHT22;10780;50.942;4.028;2023-07-29T01:31:53;19.30;99.90
21244;DHT22;10780;50.942;4.028;2023-07-29T01:34:26;19.30;99.90
21244;DHT22;10780;50.942;4.028;2023-07-29T01:36:54;19.30;99.90
21244;DHT22;10780;50.942;4.028;2023-07-29T01:39:23;19.30;99.90
21244;DHT22;10780;50.942;4.028;2023-07-29T01:41:49;19.10;99.90
21244;DHT22;10780;50.942;4.028;2023-07-29T01:44:17;19.00;99.90
21244;DHT22;10780;50.942;4.028;2023-07-29T01:46:44;18.90;99.90
21244;DHT22;10780;50.942;4.028;2023-07-29T01:49:10;18.90;99.90
21244;DHT22;10780;50.942;4.028;2023-07-29T01:51:35;18.90;99.90
21244;DHT22;10780;50.942;4.028;2023-07-29T01:54:01;19.00;99.90
21244;DHT22;10780;50.942;4.028;2023-07-29T01:56:27;18.90;99.90
21244;DHT22;10780;50.942;4.028;2023-07-29T01:58:52;18.90;99.90
21244;DHT22;10780;50.942;4.028;2023-07-29T02:01:18;18.90;99.90
21244;DHT22;10780;50.942;4.028;2023-07-29T02:03:43;18.80;99.90
21244;DHT22;10780;50.942;4.028;2023-07-29T02:06:09;18.60;99.90
21244;DHT22;10780;50.942;4.028;2023-07-29T02:08:35;18.50;99.90
21244;DHT22;10780;50.942;4.028;2023-07-29T02:11:00;18.50;99.90
21244;DHT22;10780;50.942;4.028;2023-07-29T02:13:26;18.60;99.90
21244;DHT22;10780;50.942;4.028;2023-07-29T02:15:52;18.60;99.90
21244;DHT22;10780;50.942;4.028;2023-07-29T02:18:18;18.60;99.90
21244;DHT22;10780;50.942;4.028;2023-07-29T02:20:43;18.50;99.90
21244;DHT22;10780;50.942;4.028;2023-07-29T02:23:15;18.50;99.90
21244;DHT22;10780;50.942;4.028;2023-07-29T02:25:41;18.50;99.90
21244;DHT22;10780;50.942;4.028;2023-07-29T02:28:07;18.50;99.90
21244;DHT22;10780;50.942;4.028;2023-07-29T02:30:32;18.50;99.90
21244;DHT22;10780;50.942;4.028;2023-07-29T02:32:58;18.50;99.90
21244;DHT22;10780;50.942;4.028;2023-07-29T02:35:25;18.50;99.90
21244;DHT22;10780;50.942;4.028;2023-07-29T02:37:50;18.60;99.90
21244;DHT22;10780;50.942;4.028;2023-07-29T02:40:16;18.50;99.90
21244;DHT22;10780;50.942;4.028;2023-07-29T02:42:41;18.60;99.90
21244;DHT22;10780;50.942;4.028;2023-07-29T02:45:07;18.60;99.90
21244;DHT22;10780;50.942;4.028;2023-07-29T02:47:36;18.60;99.90
21244;DHT22;10780;50.942;4.028;2023-07-29T02:50:02;18.50;99.90
21244;DHT22;10780;50.942;4.028;2023-07-29T02:52:27;18.50;99.90
21244;DHT22;10780;50.942;4.028;2023-07-29T02:54:53;18.50;99.90
21244;DHT22;10780;50.942;4.028;2023-07-29T02:57:18;18.60;99.90
21244;DHT22;10780;50.942;4.028;2023-07-29T02:59:44;18.70;99.90
21244;DHT22;10780;50.942;4.028;2023-07-29T03:02:10;18.70;99.90
21244;DHT22;10780;50.942;4.028;2023-07-29T03:04:36;18.70;99.90
21244;DHT22;10780;50.942;4.028;2023-07-29T03:07:03;18.60;99.90
21244;DHT22;10780;50.942;4.028;2023-07-29T03:09:29;18.50;99.90
21244;DHT22;10780;50.942;4.028;2023-07-29T03:11:54;18.40;99.90
21244;DHT22;10780;50.942;4.028;2023-07-29T03:14:21;18.50;99.90
21244;DHT22;10780;50.942;4.028;2023-07-29T03:16:46;18.40;99.90
21244;DHT22;10780;50.942;4.028;2023-07-29T03:19:12;18.40;99.90
21244;DHT22;10780;50.942;4.028;2023-07-29T03:21:38;18.30;99.90
21244;DHT22;10780;50.942;4.028;2023-07-29T03:24:04;18.30;99.90
21244;DHT22;10780;50.942;4.028;2023-07-29T03:26:29;18.30;99.90
21244;DHT22;10780;50.942;4.028;2023-07-29T03:28:55;18.30;99.90
21244;DHT22;10780;50.942;4.028;2023-07-29T03:31:20;18.30;99.90
21244;DHT22;10780;50.942;4.028;2023-07-29T03:33:46;18.30;99.90
21244;DHT22;10780;50.942;4.028;2023-07-29T03:36:12;18.20;99.90
21244;DHT22;10780;50.942;4.028;2023-07-29T03:38:37;18.30;99.90
21244;DHT22;10780;50.942;4.028;2023-07-29T03:41:07;18.30;99.90
21244;DHT22;10780;50.942;4.028;2023-07-29T03:43:32;18.40;99.90
21244;DHT22;10780;50.942;4.028;2023-07-29T03:45:58;18.40;99.90
21244;DHT22;10780;50.942;4.028;2023-07-29T03:48:24;18.30;99.90
21244;DHT22;10780;50.942;4.028;2023-07-29T03:50:49;18.30;99.90
21244;DHT22;10780;50.942;4.028;2023-07-29T03:53:15;18.20;99.90
21244;DHT22;10780;50.942;4.028;2023-07-29T03:55:41;18.20;99.90
21244;DHT22;10780;50.942;4.028;2023-07-29T03:58:06;18.20;99.90
21244;DHT22;10780;50.942;4.028;2023-07-29T04:00:32;18.20;99.90
21244;DHT22;10780;50.942;4.028;2023-07-29T04:02:57;18.10;99.90
21244;DHT22;10780;50.942;4.028;2023-07-29T04:05:23;18.10;99.90
21244;DHT22;10780;50.942;4.028;2023-07-29T04:07:49;18.20;99.90
21244;DHT22;10780;50.942;4.028;2023-07-29T04:10:14;18.20;99.90
21244;DHT22;10780;50.942;4.028;2023-07-29T04:12:40;18.40;99.90
21244;DHT22;10780;50.942;4.028;2023-07-29T04:15:06;18.50;99.90
21244;DHT22;10780;50.942;4.028;2023-07-29T04:17:32;18.50;99.90
21244;DHT22;10780;50.942;4.028;2023-07-29T04:19:57;18.40;99.90
21244;DHT22;10780;50.942;4.028;2023-07-29T04:22:23;18.50;99.90
21244;DHT22;10780;50.942;4.028;2023-07-29T04:24:49;18.50;99.90
21244;DHT22;10780;50.942;4.028;2023-07-29T04:27:14;18.40;99.90
21244;DHT22;10780;50.942;4.028;2023-07-29T04:29:40;18.40;99.90
21244;DHT22;10780;50.942;4.028;2023-07-29T04:32:06;18.50;99.90
21244;DHT22;10780;50.942;4.028;2023-07-29T04:34:32;18.50;99.90
21244;DHT22;10780;50.942;4.028;2023-07-29T04:36:57;18.40;99.90
21244;DHT22;10780;50.942;4.028;2023-07-29T04:39:23;18.60;99.90
21244;DHT22;10780;50.942;4.028;2023-07-29T04:41:49;18.70;99.90
21244;DHT22;10780;50.942;4.028;2023-07-29T04:44:14;18.80;99.90
21244;DHT22;10780;50.942;4.028;2023-07-29T04:46:40;18.80;99.90
21244;DHT22;10780;50.942;4.028;2023-07-29T04:49:06;18.80;99.90
21244;DHT22;10780;50.942;4.028;2023-07-29T04:51:31;18.70;99.90
21244;DHT22;10780;50.942;4.028;2023-07-29T04:53:58;18.90;99.90
21244;DHT22;10780;50.942;4.028;2023-07-29T04:56:23;18.90;99.90
21244;DHT22;10780;50.942;4.028;2023-07-29T04:58:49;18.90;99.90
21244;DHT22;10780;50.942;4.028;2023-07-29T05:01:15;18.80;99.90
21244;DHT22;10780;50.942;4.028;2023-07-29T05:03:40;18.70;99.90
21244;DHT22;10780;50.942;4.028;2023-07-29T05:06:06;18.70;99.90
21244;DHT22;10780;50.942;4.028;2023-07-29T05:08:32;18.70;99.90
21244;DHT22;10780;50.942;4.028;2023-07-29T05:10:57;18.80;99.90
21244;DHT22;10780;50.942;4.028;2023-07-29T05:13:23;18.80;99.90
21244;DHT22;10780;50.942;4.028;2023-07-29T05:15:49;18.80;99.90
21244;DHT22;10780;50.942;4.028;2023-07-29T05:18:16;18.60;99.90
21244;DHT22;10780;50.942;4.028;2023-07-29T05:20:42;18.60;99.90
21244;DHT22;10780;50.942;4.028;2023-07-29T05:23:07;18.60;99.90
21244;DHT22;10780;50.942;4.028;2023-07-29T05:25:33;18.60;99.90
21244;DHT22;10780;50.942;4.028;2023-07-29T05:28:00;18.80;99.90
21244;DHT22;10780;50.942;4.028;2023-07-29T05:30:26;18.80;99.90
21244;DHT22;10780;50.942;4.028;2023-07-29T05:32:52;18.90;99.90
21244;DHT22;10780;50.942;4.028;2023-07-29T05:35:18;19.00;99.90
21244;DHT22;10780;50.942;4.028;2023-07-29T05:37:43;19.10;99.90
21244;DHT22;10780;50.942;4.028;2023-07-29T05:40:09;19.00;99.90
21244;DHT22;10780;50.942;4.028;2023-07-29T05:42:35;19.10;99.90
21244;DHT22;10780;50.942;4.028;2023-07-29T05:45:01;19.20;99.90
21244;DHT22;10780;50.942;4.028;2023-07-29T05:47:27;19.20;99.90
21244;DHT22;10780;50.942;4.028;2023-07-29T05:49:53;19.20;99.90
21244;DHT22;10780;50.942;4.028;2023-07-29T05:52:18;19.40;99.90
21244;DHT22;10780;50.942;4.028;2023-07-29T05:54:44;19.60;99.90
21244;DHT22;10780;50.942;4.028;2023-07-29T05:57:11;19.80;99.90
21244;DHT22;10780;50.942;4.028;2023-07-29T05:59:37;20.00;99.90
21244;DHT22;10780;50.942;4.028;2023-07-29T06:02:03;20.20;99.90
21244;DHT22;10780;50.942;4.028;2023-07-29T06:04:29;20.20;99.90
21244;DHT22;10780;50.942;4.028;2023-07-29T06:06:54;20.20;99.90
21244;DHT22;10780;50.942;4.028;2023-07-29T06:09:24;20.30;99.90
21244;DHT22;10780;50.942;4.028;2023-07-29T06:11:51;20.40;99.90
21244;DHT22;10780;50.942;4.028;2023-07-29T06:14:16;20.60;99.90
21244;DHT22;10780;50.942;4.028;2023-07-29T06:16:42;20.70;99.90
21244;DHT22;10780;50.942;4.028;2023-07-29T06:19:07;21.00;99.90
21244;DHT22;10780;50.942;4.028;2023-07-29T06:21:34;21.00;99.90
21244;DHT22;10780;50.942;4.028;2023-07-29T06:24:00;21.10;99.90
21244;DHT22;10780;50.942;4.028;2023-07-29T06:26:26;21.30;99.90
21244;DHT22;10780;50.942;4.028;2023-07-29T06:28:51;21.50;99.90
21244;DHT22;10780;50.942;4.028;2023-07-29T06:31:17;21.50;99.90
21244;DHT22;10780;50.942;4.028;2023-07-29T06:33:42;21.50;99.90
21244;DHT22;10780;50.942;4.028;2023-07-29T06:36:08;21.40;99.90
21244;DHT22;10780;50.942;4.028;2023-07-29T06:38:34;21.50;99.90
21244;DHT22;10780;50.942;4.028;2023-07-29T06:40:59;21.60;99.90
21244;DHT22;10780;50.942;4.028;2023-07-29T06:43:25;21.60;99.90
21244;DHT22;10780;50.942;4.028;2023-07-29T06:45:50;21.60;99.90
21244;DHT22;10780;50.942;4.028;2023-07-29T06:48:17;21.30;99.90
21244;DHT22;10780;50.942;4.028;2023-07-29T06:50:44;21.00;99.90
21244;DHT22;10780;50.942;4.028;2023-07-29T06:53:10;21.00;99.90
21244;DHT22;10780;50.942;4.028;2023-07-29T06:55:35;20.80;99.90
21244;DHT22;10780;50.942;4.028;2023-07-29T06:58:01;20.80;99.90
21244;DHT22;10780;50.942;4.028;2023-07-29T07:00:27;20.60;99.90
21244;DHT22;10780;50.942;4.028;2023-07-29T07:02:53;20.50;99.90
21244;DHT22;10780;50.942;4.028;2023-07-29T07:05:18;20.60;99.90
21244;DHT22;10780;50.942;4.028;2023-07-29T07:07:44;20.60;99.90
21244;DHT22;10780;50.942;4.028;2023-07-29T07:10:09;20.70;99.90
21244;DHT22;10780;50.942;4.028;2023-07-29T07:12:35;20.70;99.90
21244;DHT22;10780;50.942;4.028;2023-07-29T07:15:01;20.70;99.90
21244;DHT22;10780;50.942;4.028;2023-07-29T07:17:27;20.80;99.90
21244;DHT22;10780;50.942;4.028;2023-07-29T07:19:52;20.90;99.90
21244;DHT22;10780;50.942;4.028;2023-07-29T07:22:18;20.80;99.90
21244;DHT22;10780;50.942;4.028;2023-07-29T07:24:44;21.10;99.90
21244;DHT22;10780;50.942;4.028;2023-07-29T07:27:10;21.50;99.90
21244;DHT22;10780;50.942;4.028;2023-07-29T07:29:35;21.50;99.90
21244;DHT22;10780;50.942;4.028;2023-07-29T07:32:01;21.40;99.90
21244;DHT22;10780;50.942;4.028;2023-07-29T07:34:27;21.60;99.90
21244;DHT22;10780;50.942;4.028;2023-07-29T07:36:53;21.80;99.90
21244;DHT22;10780;50.942;4.028;2023-07-29T07:39:19;21.90;99.90
21244;DHT22;10780;50.942;4.028;2023-07-29T07:41:44;22.00;99.90
21244;DHT22;10780;50.942;4.028;2023-07-29T07:44:10;22.00;99.90
21244;DHT22;10780;50.942;4.028;2023-07-29T07:46:38;22.10;99.90
21244;DHT22;10780;50.942;4.028;2023-07-29T07:49:03;22.10;99.90
21244;DHT22;10780;50.942;4.028;2023-07-29T07:51:29;22.10;99.90
21244;DHT22;10780;50.942;4.028;2023-07-29T07:53:55;22.50;99.90
21244;DHT22;10780;50.942;4.028;2023-07-29T07:56:20;22.80;99.90
21244;DHT22;10780;50.942;4.028;2023-07-29T07:58:46;23.20;99.90
21244;DHT22;10780;50.942;4.028;2023-07-29T08:01:12;23.80;99.90
21244;DHT22;10780;50.942;4.028;2023-07-29T08:03:37;24.20;99.90
21244;DHT22;10780;50.942;4.028;2023-07-29T08:06:04;24.00;99.90
21244;DHT22;10780;50.942;4.028;2023-07-29T08:08:29;24.20;99.90
21244;DHT22;10780;50.942;4.028;2023-07-29T08:10:56;24.00;99.90
21244;DHT22;10780;50.942;4.028;2023-07-29T08:13:23;24.00;99.90
21244;DHT22;10780;50.942;4.028;2023-07-29T08:15:51;24.10;99.90
21244;DHT22;10780;50.942;4.028;2023-07-29T08:18:17;24.10;99.90
21244;DHT22;10780;50.942;4.028;2023-07-29T08:20:57;24.10;99.90
21244;DHT22;10780;50.942;4.028;2023-07-29T08:23:34;23.90;99.90
21244;DHT22;10780;50.942;4.028;2023-07-29T08:26:02;23.60;99.90
21244;DHT22;10780;50.942;4.028;2023-07-29T08:28:30;23.30;99.90
21244;DHT22;10780;50.942;4.028;2023-07-29T08:30:55;22.90;99.90
21244;DHT22;10780;50.942;4.028;2023-07-29T08:33:21;23.10;99.90
21244;DHT22;10780;50.942;4.028;2023-07-29T08:35:47;23.50;99.90
21244;DHT22;10780;50.942;4.028;2023-07-29T08:38:12;23.60;99.90
21244;DHT22;10780;50.942;4.028;2023-07-29T08:40:45;23.80;99.90
21244;DHT22;10780;50.942;4.028;2023-07-29T08:43:12;24.10;99.90
21244;DHT22;10780;50.942;4.028;2023-07-29T08:45:40;24.30;99.90
21244;DHT22;10780;50.942;4.028;2023-07-29T08:48:08;24.20;99.90
21244;DHT22;10780;50.942;4.028;2023-07-29T08:50:36;24.40;99.90
21244;DHT22;10780;50.942;4.028;2023-07-29T08:53:04;24.50;99.90
21244;DHT22;10780;50.942;4.028;2023-07-29T08:55:31;24.50;99.90
21244;DHT22;10780;50.942;4.028;2023-07-29T08:57:58;24.50;99.90
21244;DHT22;10780;50.942;4.028;2023-07-29T09:00:25;25.00;99.90
21244;DHT22;10780;50.942;4.028;2023-07-29T09:02:51;25.50;99.90
21244;DHT22;10780;50.942;4.028;2023-07-29T09:05:17;26.10;99.90
21244;DHT22;10780;50.942;4.028;2023-07-29T09:07:44;25.80;99.90
21244;DHT22;10780;50.942;4.028;2023-07-29T09:10:10;25.40;99.90
21244;DHT22;10780;50.942;4.028;2023-07-29T09:12:39;24.90;99.90
21244;DHT22;10780;50.942;4.028;2023-07-29T09:15:05;24.00;99.90
21244;DHT22;10780;50.942;4.028;2023-07-29T09:17:32;23.90;99.90
21244;DHT22;10780;50.942;4.028;2023-07-29T09:19:58;23.90;99.90
21244;DHT22;10780;50.942;4.028;2023-07-29T09:22:24;24.00;99.90
21244;DHT22;10780;50.942;4.028;2023-07-29T09:24:52;24.10;99.90
21244;DHT22;10780;50.942;4.028;2023-07-29T09:27:28;24.10;99.90
21244;DHT22;10780;50.942;4.028;2023-07-29T09:29:56;24.00;99.90
21244;DHT22;10780;50.942;4.028;2023-07-29T09:32:23;24.00;99.90
21244;DHT22;10780;50.942;4.028;2023-07-29T09:34:49;24.00;99.90
21244;DHT22;10780;50.942;4.028;2023-07-29T09:37:21;24.30;99.90
21244;DHT22;10780;50.942;4.028;2023-07-29T09:39:48;24.60;99.90
21244;DHT22;10780;50.942;4.028;2023-07-29T09:42:21;24.90;99.90
21244;DHT22;10780;50.942;4.028;2023-07-29T09:44:50;25.30;99.90
21244;DHT22;10780;50.942;4.028;2023-07-29T09:47:23;25.70;99.90
21244;DHT22;10780;50.942;4.028;2023-07-29T09:49:50;25.80;99.90
21244;DHT22;10780;50.942;4.028;2023-07-29T09:52:17;25.90;99.90
21244;DHT22;10780;50.942;4.028;2023-07-29T09:54:44;25.40;99.90
21244;DHT22;10780;50.942;4.028;2023-07-29T09:57:11;25.10;99.90
21244;DHT22;10780;50.942;4.028;2023-07-29T09:59:36;25.40;99.90
21244;DHT22;10780;50.942;4.028;2023-07-29T10:02:02;25.80;99.90
21244;DHT22;10780;50.942;4.028;2023-07-29T10:04:29;26.40;99.90
21244;DHT22;10780;50.942;4.028;2023-07-29T10:06:56;26.60;99.90
21244;DHT22;10780;50.942;4.028;2023-07-29T10:09:23;26.60;99.90
21244;DHT22;10780;50.942;4.028;2023-07-29T10:11:49;26.40;99.90
21244;DHT22;10780;50.942;4.028;2023-07-29T10:14:16;26.70;99.90
21244;DHT22;10780;50.942;4.028;2023-07-29T10:16:43;26.50;99.90
21244;DHT22;10780;50.942;4.028;2023-07-29T10:19:11;26.30;99.90
21244;DHT22;10780;50.942;4.028;2023-07-29T10:21:41;25.80;99.90
21244;DHT22;10780;50.942;4.028;2023-07-29T10:24:15;25.10;99.90
21244;DHT22;10780;50.942;4.028;2023-07-29T10:26:46;24.30;99.90
21244;DHT22;10780;50.942;4.028;2023-07-29T10:29:13;24.20;99.90
21244;DHT22;10780;50.942;4.028;2023-07-29T10:31:42;24.20;99.90
21244;DHT22;10780;50.942;4.028;2023-07-29T10:34:09;24.60;99.90
21244;DHT22;10780;50.942;4.028;2023-07-29T10:36:35;25.10;99.90
21244;DHT22;10780;50.942;4.028;2023-07-29T10:39:01;25.10;99.90
21244;DHT22;10780;50.942;4.028;2023-07-29T10:41:56;24.70;99.90
21244;DHT22;10780;50.942;4.028;2023-07-29T10:47:19;25.50;99.90
21244;DHT22;10780;50.942;4.028;2023-07-29T10:49:46;26.00;99.90
21244;DHT22;10780;50.942;4.028;2023-07-29T10:52:16;25.90;99.90
21244;DHT22;10780;50.942;4.028;2023-07-29T10:54:46;25.50;99.90
21244;DHT22;10780;50.942;4.028;2023-07-29T10:57:29;25.30;99.90
21244;DHT22;10780;50.942;4.028;2023-07-29T10:59:56;24.80;99.90
21244;DHT22;10780;50.942;4.028;2023-07-29T11:02:31;24.20;99.90
21244;DHT22;10780;50.942;4.028;2023-07-29T11:04:57;23.70;99.90
21244;DHT22;10780;50.942;4.028;2023-07-29T11:07:27;23.60;99.90
21244;DHT22;10780;50.942;4.028;2023-07-29T11:10:01;23.60;99.90
21244;DHT22;10780;50.942;4.028;2023-07-29T11:17:38;23.70;99.90
21244;DHT22;10780;50.942;4.028;2023-07-29T11:20:05;23.70;99.90
21244;DHT22;10780;50.942;4.028;2023-07-29T11:22:33;24.10;99.90
21244;DHT22;10780;50.942;4.028;2023-07-29T11:24:59;24.50;99.90
21244;DHT22;10780;50.942;4.028;2023-07-29T11:27:24;24.90;99.90
21244;DHT22;10780;50.942;4.028;2023-07-29T11:29:50;25.00;99.90
21244;DHT22;10780;50.942;4.028;2023-07-29T11:32:16;24.90;99.90
21244;DHT22;10780;50.942;4.028;2023-07-29T11:34:42;24.90;99.90
21244;DHT22;10780;50.942;4.028;2023-07-29T11:37:11;24.40;99.90
21244;DHT22;10780;50.942;4.028;2023-07-29T11:39:40;24.10;99.90
21244;DHT22;10780;50.942;4.028;2023-07-29T11:42:06;23.80;99.90
21244;DHT22;10780;50.942;4.028;2023-07-29T11:44:32;23.40;99.90
21244;DHT22;10780;50.942;4.028;2023-07-29T11:46:58;22.90;99.90
21244;DHT22;10780;50.942;4.028;2023-07-29T11:49:23;22.50;99.90
21244;DHT22;10780;50.942;4.028;2023-07-29T11:51:49;22.40;99.90
21244;DHT22;10780;50.942;4.028;2023-07-29T11:54:15;22.60;99.90
21244;DHT22;10780;50.942;4.028;2023-07-29T11:56:41;23.10;99.90
21244;DHT22;10780;50.942;4.028;2023-07-29T11:59:06;23.40;99.90
21244;DHT22;10780;50.942;4.028;2023-07-29T12:01:33;23.50;99.90
21244;DHT22;10780;50.942;4.028;2023-07-29T12:03:59;23.30;99.90
21244;DHT22;10780;50.942;4.028;2023-07-29T12:06:25;23.00;99.90
21244;DHT22;10780;50.942;4.028;2023-07-29T12:08:51;22.90;99.90
21244;DHT22;10780;50.942;4.028;2023-07-29T12:11:17;23.00;99.90
21244;DHT22;10780;50.942;4.028;2023-07-29T12:13:44;23.00;99.90
21244;DHT22;10780;50.942;4.028;2023-07-29T12:16:09;22.90;99.90
21244;DHT22;10780;50.942;4.028;2023-07-29T12:18:36;23.00;99.90
21244;DHT22;10780;50.942;4.028;2023-07-29T12:21:02;23.00;99.90
21244;DHT22;10780;50.942;4.028;2023-07-29T12:23:29;23.30;99.90
21244;DHT22;10780;50.942;4.028;2023-07-29T12:25:59;23.40;99.90
21244;DHT22;10780;50.942;4.028;2023-07-29T12:28:25;23.40;99.90
21244;DHT22;10780;50.942;4.028;2023-07-29T12:30:55;23.60;99.90
21244;DHT22;10780;50.942;4.028;2023-07-29T12:35:56;24.20;99.90
21244;DHT22;10780;50.942;4.028;2023-07-29T12:38:22;24.60;99.90
21244;DHT22;10780;50.942;4.028;2023-07-29T12:40:47;25.00;99.90
21244;DHT22;10780;50.942;4.028;2023-07-29T12:43:13;25.40;99.90
21244;DHT22;10780;50.942;4.028;2023-07-29T12:45:39;25.90;99.90
21244;DHT22;10780;50.942;4.028;2023-07-29T12:48:09;26.10;99.90
21244;DHT22;10780;50.942;4.028;2023-07-29T12:50:35;26.00;99.90
21244;DHT22;10780;50.942;4.028;2023-07-29T12:53:01;26.00;99.90
21244;DHT22;10780;50.942;4.028;2023-07-29T12:55:26;26.10;99.90
21244;DHT22;10780;50.942;4.028;2023-07-29T12:57:52;26.40;99.90
21244;DHT22;10780;50.942;4.028;2023-07-29T13:00:18;26.10;99.90
21244;DHT22;10780;50.942;4.028;2023-07-29T13:02:43;25.80;99.90
21244;DHT22;10780;50.942;4.028;2023-07-29T13:05:10;25.90;99.90
21244;DHT22;10780;50.942;4.028;2023-07-29T13:07:42;25.60;99.90
21244;DHT22;10780;50.942;4.028;2023-07-29T13:10:09;25.40;99.90
21244;DHT22;10780;50.942;4.028;2023-07-29T13:12:35;25.50;99.90
21244;DHT22;10780;50.942;4.028;2023-07-29T13:15:01;25.30;99.90
21244;DHT22;10780;50.942;4.028;2023-07-29T13:17:26;25.50;99.90
21244;DHT22;10780;50.942;4.028;2023-07-29T13:19:52;25.70;99.90
21244;DHT22;10780;50.942;4.028;2023-07-29T13:22:19;25.30;99.90
21244;DHT22;10780;50.942;4.028;2023-07-29T13:24:45;25.40;99.90
21244;DHT22;10780;50.942;4.028;2023-07-29T13:27:10;25.50;99.90
21244;DHT22;10780;50.942;4.028;2023-07-29T13:29:36;25.60;99.90
21244;DHT22;10780;50.942;4.028;2023-07-29T13:32:01;25.70;99.90
21244;DHT22;10780;50.942;4.028;2023-07-29T13:34:27;25.90;99.90
21244;DHT22;10780;50.942;4.028;2023-07-29T13:36:53;26.40;99.90
21244;DHT22;10780;50.942;4.028;2023-07-29T13:39:19;26.70;99.90
21244;DHT22;10780;50.942;4.028;2023-07-29T13:41:44;26.70;99.90
21244;DHT22;10780;50.942;4.028;2023-07-29T13:44:10;27.30;99.90
21244;DHT22;10780;50.942;4.028;2023-07-29T13:46:35;27.10;99.90
21244;DHT22;10780;50.942;4.028;2023-07-29T13:49:01;27.20;99.90
21244;DHT22;10780;50.942;4.028;2023-07-29T13:51:27;27.20;99.90
21244;DHT22;10780;50.942;4.028;2023-07-29T13:53:53;26.90;99.90
21244;DHT22;10780;50.942;4.028;2023-07-29T13:56:18;26.90;99.90
21244;DHT22;10780;50.942;4.028;2023-07-29T13:58:44;27.10;99.90
21244;DHT22;10780;50.942;4.028;2023-07-29T14:01:09;26.90;99.90
21244;DHT22;10780;50.942;4.028;2023-07-29T14:03:35;26.80;99.90
21244;DHT22;10780;50.942;4.028;2023-07-29T14:06:01;26.00;99.90
21244;DHT22;10780;50.942;4.028;2023-07-29T14:08:26;25.80;99.90
21244;DHT22;10780;50.942;4.028;2023-07-29T14:10:52;26.30;99.90
21244;DHT22;10780;50.942;4.028;2023-07-29T14:13:17;26.20;99.90
21244;DHT22;10780;50.942;4.028;2023-07-29T14:15:43;25.90;99.90
21244;DHT22;10780;50.942;4.028;2023-07-29T14:18:08;25.60;99.90
21244;DHT22;10780;50.942;4.028;2023-07-29T14:20:34;25.20;99.90
21244;DHT22;10780;50.942;4.028;2023-07-29T14:23:00;25.00;99.90
21244;DHT22;10780;50.942;4.028;2023-07-29T14:25:27;25.40;99.90
21244;DHT22;10780;50.942;4.028;2023-07-29T14:27:52;26.00;99.90
21244;DHT22;10780;50.942;4.028;2023-07-29T14:30:18;26.90;99.90
21244;DHT22;10780;50.942;4.028;2023-07-29T14:32:43;26.90;99.90
21244;DHT22;10780;50.942;4.028;2023-07-29T14:35:09;26.40;99.90
21244;DHT22;10780;50.942;4.028;2023-07-29T14:37:35;26.40;99.90
21244;DHT22;10780;50.942;4.028;2023-07-29T14:40:01;26.10;99.90
21244;DHT22;10780;50.942;4.028;2023-07-29T14:42:27;25.70;99.90
21244;DHT22;10780;50.942;4.028;2023-07-29T14:44:53;25.80;99.90
21244;DHT22;10780;50.942;4.028;2023-07-29T14:47:19;25.50;99.90
21244;DHT22;10780;50.942;4.028;2023-07-29T14:49:45;25.60;99.90
21244;DHT22;10780;50.942;4.028;2023-07-29T14:52:11;25.50;99.90
21244;DHT22;10780;50.942;4.028;2023-07-29T14:54:36;25.70;99.90
21244;DHT22;10780;50.942;4.028;2023-07-29T14:57:02;26.20;99.90
21244;DHT22;10780;50.942;4.028;2023-07-29T14:59:28;26.10;99.90
21244;DHT22;10780;50.942;4.028;2023-07-29T15:01:53;26.30;99.90
21244;DHT22;10780;50.942;4.028;2023-07-29T15:04:19;26.40;99.90
21244;DHT22;10780;50.942;4.028;2023-07-29T15:06:45;27.00;99.90
21244;DHT22;10780;50.942;4.028;2023-07-29T15:09:11;26.70;99.90
21244;DHT22;10780;50.942;4.028;2023-07-29T15:11:36;27.00;99.90
21244;DHT22;10780;50.942;4.028;2023-07-29T15:14:02;27.50;99.90
21244;DHT22;10780;50.942;4.028;2023-07-29T15:16:30;27.00;99.90
21244;DHT22;10780;50.942;4.028;2023-07-29T15:18:57;26.90;99.90
21244;DHT22;10780;50.942;4.028;2023-07-29T15:21:23;27.00;99.90
21244;DHT22;10780;50.942;4.028;2023-07-29T15:23:49;26.90;99.90
21244;DHT22;10780;50.942;4.028;2023-07-29T15:26:14;26.30;99.90
21244;DHT22;10780;50.942;4.028;2023-07-29T15:28:40;26.30;99.90
21244;DHT22;10780;50.942;4.028;2023-07-29T15:31:05;26.10;99.90
21244;DHT22;10780;50.942;4.028;2023-07-29T15:33:31;25.90;99.90
21244;DHT22;10780;50.942;4.028;2023-07-29T15:35:59;26.70;99.90
21244;DHT22;10780;50.942;4.028;2023-07-29T15:38:25;27.70;99.90
21244;DHT22;10780;50.942;4.028;2023-07-29T15:40:51;28.00;99.90